Terminal Aerodrome Forecast
Issued by NWS

Home | Current Version | Previous Version | Text Only | Print | Product List | Glossary On
Versions: 1 2 3 4 5 6 7 8 9 10 11 12 13 14 15 16 17 18 19 20 21 22 23 24 25 26 27 28 29 30 31
000
FTUS41 KBOX 031120
TAFACK
TAF
KACK 031120Z 0312/0412 21007KT P6SM SCT002 BKN035
     FM031500 20011KT P6SM SCT035
     FM032100 20011G18KT P6SM SCT035
     FM040900 21012G19KT 6SM BR BKN004=

USA.gov is the U.S. government's official web portal to all federal, state and local government web resources and services.